sensor_id;sensor_type;location;lat;lon;timestamp;P1;durP1;ratioP1;P2;durP2;ratioP2
19863;SDS011;10094;48.820;9.226;2022-12-17T00:01:26;26.20;;;17.00;;
19863;SDS011;10094;48.820;9.226;2022-12-17T00:08:27;30.40;;;15.40;;
19863;SDS011;10094;48.820;9.226;2022-12-17T00:15:31;30.15;;;16.00;;
19863;SDS011;10094;48.820;9.226;2022-12-17T00:22:32;28.88;;;16.23;;
19863;SDS011;10094;48.820;9.226;2022-12-17T00:29:34;27.40;;;15.50;;
19863;SDS011;10094;48.820;9.226;2022-12-17T00:36:36;29.13;;;16.58;;
19863;SDS011;10094;48.820;9.226;2022-12-17T00:43:37;28.45;;;15.82;;
19863;SDS011;10094;48.820;9.226;2022-12-17T00:50:40;25.90;;;16.05;;
19863;SDS011;10094;48.820;9.226;2022-12-17T00:57:42;23.42;;;15.15;;
19863;SDS011;10094;48.820;9.226;2022-12-17T01:04:43;31.13;;;16.00;;
19863;SDS011;10094;48.820;9.226;2022-12-17T01:11:44;29.05;;;15.80;;
19863;SDS011;10094;48.820;9.226;2022-12-17T01:18:45;27.63;;;16.27;;
19863;SDS011;10094;48.820;9.226;2022-12-17T01:25:53;27.48;;;15.40;;
19863;SDS011;10094;48.820;9.226;2022-12-17T01:33:03;32.05;;;17.58;;
19863;SDS011;10094;48.820;9.226;2022-12-17T01:40:06;26.77;;;14.30;;
19863;SDS011;10094;48.820;9.226;2022-12-17T01:47:29;30.05;;;16.33;;
19863;SDS011;10094;48.820;9.226;2022-12-17T01:54:37;31.77;;;17.23;;
19863;SDS011;10094;48.820;9.226;2022-12-17T02:01:59;28.83;;;15.65;;
19863;SDS011;10094;48.820;9.226;2022-12-17T02:09:04;31.02;;;15.95;;
19863;SDS011;10094;48.820;9.226;2022-12-17T02:16:34;25.63;;;15.57;;
19863;SDS011;10094;48.820;9.226;2022-12-17T02:23:46;31.55;;;17.33;;
19863;SDS011;10094;48.820;9.226;2022-12-17T02:31:10;31.38;;;17.35;;
19863;SDS011;10094;48.820;9.226;2022-12-17T02:38:16;23.13;;;14.77;;
19863;SDS011;10094;48.820;9.226;2022-12-17T02:45:19;27.00;;;16.27;;
19863;SDS011;10094;48.820;9.226;2022-12-17T02:52:21;25.13;;;15.73;;
19863;SDS011;10094;48.820;9.226;2022-12-17T02:59:24;28.77;;;16.52;;
19863;SDS011;10094;48.820;9.226;2022-12-17T03:06:29;32.08;;;17.00;;
19863;SDS011;10094;48.820;9.226;2022-12-17T03:13:30;38.60;;;17.80;;
19863;SDS011;10094;48.820;9.226;2022-12-17T03:20:32;30.80;;;16.52;;
19863;SDS011;10094;48.820;9.226;2022-12-17T03:27:32;35.63;;;17.73;;
19863;SDS011;10094;48.820;9.226;2022-12-17T03:34:33;36.45;;;19.15;;
19863;SDS011;10094;48.820;9.226;2022-12-17T03:41:34;28.60;;;17.20;;
19863;SDS011;10094;48.820;9.226;2022-12-17T03:48:35;32.70;;;17.85;;
19863;SDS011;10094;48.820;9.226;2022-12-17T03:55:36;32.75;;;16.88;;
19863;SDS011;10094;48.820;9.226;2022-12-17T04:02:37;36.92;;;18.83;;
19863;SDS011;10094;48.820;9.226;2022-12-17T04:09:38;36.00;;;18.38;;
19863;SDS011;10094;48.820;9.226;2022-12-17T04:16:39;34.60;;;18.92;;
19863;SDS011;10094;48.820;9.226;2022-12-17T04:23:40;35.65;;;18.65;;
19863;SDS011;10094;48.820;9.226;2022-12-17T04:30:41;40.50;;;20.25;;
19863;SDS011;10094;48.820;9.226;2022-12-17T04:37:43;40.40;;;20.63;;
19863;SDS011;10094;48.820;9.226;2022-12-17T04:44:44;40.53;;;20.25;;
19863;SDS011;10094;48.820;9.226;2022-12-17T04:51:45;37.15;;;19.70;;
19863;SDS011;10094;48.820;9.226;2022-12-17T04:58:46;40.83;;;21.33;;
19863;SDS011;10094;48.820;9.226;2022-12-17T05:05:47;38.70;;;19.85;;
19863;SDS011;10094;48.820;9.226;2022-12-17T05:12:54;38.85;;;19.73;;
19863;SDS011;10094;48.820;9.226;2022-12-17T05:19:58;42.25;;;21.33;;
19863;SDS011;10094;48.820;9.226;2022-12-17T05:26:59;41.97;;;21.80;;
19863;SDS011;10094;48.820;9.226;2022-12-17T05:34:00;46.53;;;23.45;;
19863;SDS011;10094;48.820;9.226;2022-12-17T05:41:01;43.17;;;24.40;;
19863;SDS011;10094;48.820;9.226;2022-12-17T05:48:02;40.63;;;23.40;;
19863;SDS011;10094;48.820;9.226;2022-12-17T05:55:03;48.25;;;23.17;;
19863;SDS011;10094;48.820;9.226;2022-12-17T06:02:05;46.67;;;24.70;;
19863;SDS011;10094;48.820;9.226;2022-12-17T06:09:07;47.08;;;25.23;;
19863;SDS011;10094;48.820;9.226;2022-12-17T06:16:08;44.30;;;23.05;;
19863;SDS011;10094;48.820;9.226;2022-12-17T06:23:09;47.90;;;25.52;;
19863;SDS011;10094;48.820;9.226;2022-12-17T06:30:11;44.42;;;25.05;;
19863;SDS011;10094;48.820;9.226;2022-12-17T06:37:12;43.03;;;24.23;;
19863;SDS011;10094;48.820;9.226;2022-12-17T06:44:12;37.90;;;22.05;;
19863;SDS011;10094;48.820;9.226;2022-12-17T06:51:14;48.08;;;25.05;;
19863;SDS011;10094;48.820;9.226;2022-12-17T06:58:14;41.35;;;24.17;;
19863;SDS011;10094;48.820;9.226;2022-12-17T07:05:15;45.50;;;25.50;;
19863;SDS011;10094;48.820;9.226;2022-12-17T07:12:16;44.78;;;23.67;;
19863;SDS011;10094;48.820;9.226;2022-12-17T07:19:17;45.58;;;25.83;;
19863;SDS011;10094;48.820;9.226;2022-12-17T07:26:18;42.95;;;24.30;;
19863;SDS011;10094;48.820;9.226;2022-12-17T07:33:35;41.97;;;25.10;;
19863;SDS011;10094;48.820;9.226;2022-12-17T07:40:38;46.13;;;23.98;;
19863;SDS011;10094;48.820;9.226;2022-12-17T07:47:38;45.53;;;23.20;;
19863;SDS011;10094;48.820;9.226;2022-12-17T07:54:42;45.63;;;23.05;;
19863;SDS011;10094;48.820;9.226;2022-12-17T08:01:43;42.63;;;22.58;;
19863;SDS011;10094;48.820;9.226;2022-12-17T08:08:44;44.50;;;23.10;;
19863;SDS011;10094;48.820;9.226;2022-12-17T08:15:45;37.50;;;20.60;;
19863;SDS011;10094;48.820;9.226;2022-12-17T08:23:07;39.25;;;21.00;;
19863;SDS011;10094;48.820;9.226;2022-12-17T08:30:09;39.38;;;19.98;;
19863;SDS011;10094;48.820;9.226;2022-12-17T08:37:11;41.45;;;23.25;;
19863;SDS011;10094;48.820;9.226;2022-12-17T08:44:12;38.65;;;21.83;;
19863;SDS011;10094;48.820;9.226;2022-12-17T08:51:12;36.95;;;20.70;;
19863;SDS011;10094;48.820;9.226;2022-12-17T08:58:13;39.22;;;20.95;;
19863;SDS011;10094;48.820;9.226;2022-12-17T09:05:14;34.38;;;18.83;;
19863;SDS011;10094;48.820;9.226;2022-12-17T09:12:15;37.00;;;20.92;;
19863;SDS011;10094;48.820;9.226;2022-12-17T09:19:16;41.42;;;21.02;;
19863;SDS011;10094;48.820;9.226;2022-12-17T09:26:18;43.10;;;21.75;;
19863;SDS011;10094;48.820;9.226;2022-12-17T09:33:19;41.53;;;23.02;;
19863;SDS011;10094;48.820;9.226;2022-12-17T09:40:21;38.33;;;21.45;;
19863;SDS011;10094;48.820;9.226;2022-12-17T09:54:40;42.80;;;23.73;;
19863;SDS011;10094;48.820;9.226;2022-12-17T10:01:47;31.77;;;20.05;;
19863;SDS011;10094;48.820;9.226;2022-12-17T10:08:49;39.90;;;21.00;;
19863;SDS011;10094;48.820;9.226;2022-12-17T10:15:55;41.83;;;20.35;;
19863;SDS011;10094;48.820;9.226;2022-12-17T10:22:56;54.33;;;28.48;;
19863;SDS011;10094;48.820;9.226;2022-12-17T10:29:57;42.03;;;23.40;;
19863;SDS011;10094;48.820;9.226;2022-12-17T10:36:58;40.90;;;23.92;;
19863;SDS011;10094;48.820;9.226;2022-12-17T10:44:00;31.52;;;20.60;;
19863;SDS011;10094;48.820;9.226;2022-12-17T10:51:01;44.67;;;24.10;;
19863;SDS011;10094;48.820;9.226;2022-12-17T10:58:03;35.53;;;22.83;;
19863;SDS011;10094;48.820;9.226;2022-12-17T11:05:06;42.13;;;23.25;;
19863;SDS011;10094;48.820;9.226;2022-12-17T11:12:21;41.10;;;23.70;;
19863;SDS011;10094;48.820;9.226;2022-12-17T11:19:41;44.42;;;24.48;;
19863;SDS011;10094;48.820;9.226;2022-12-17T11:26:54;41.60;;;24.27;;
19863;SDS011;10094;48.820;9.226;2022-12-17T11:34:23;50.33;;;27.30;;
19863;SDS011;10094;48.820;9.226;2022-12-17T11:41:40;43.35;;;24.48;;
19863;SDS011;10094;48.820;9.226;2022-12-17T11:56:44;46.47;;;26.35;;
19863;SDS011;10094;48.820;9.226;2022-12-17T12:03:57;43.10;;;24.90;;
19863;SDS011;10094;48.820;9.226;2022-12-17T12:11:29;41.53;;;24.38;;
19863;SDS011;10094;48.820;9.226;2022-12-17T12:18:38;48.35;;;25.25;;
19863;SDS011;10094;48.820;9.226;2022-12-17T12:26:11;45.55;;;25.60;;
19863;SDS011;10094;48.820;9.226;2022-12-17T12:33:17;51.30;;;29.52;;
19863;SDS011;10094;48.820;9.226;2022-12-17T12:48:51;49.13;;;26.27;;
19863;SDS011;10094;48.820;9.226;2022-12-17T12:56:23;48.10;;;26.60;;
19863;SDS011;10094;48.820;9.226;2022-12-17T13:10:43;48.05;;;27.10;;
19863;SDS011;10094;48.820;9.226;2022-12-17T13:17:27;44.63;;;26.65;;
19863;SDS011;10094;48.820;9.226;2022-12-17T13:24:23;44.33;;;26.33;;
19863;SDS011;10094;48.820;9.226;2022-12-17T13:31:15;48.60;;;26.60;;
19863;SDS011;10094;48.820;9.226;2022-12-17T13:45:11;49.40;;;27.35;;
19863;SDS011;10094;48.820;9.226;2022-12-17T13:52:03;54.92;;;29.13;;
19863;SDS011;10094;48.820;9.226;2022-12-17T13:58:53;48.47;;;28.73;;
19863;SDS011;10094;48.820;9.226;2022-12-17T14:05:38;52.30;;;29.15;;
19863;SDS011;10094;48.820;9.226;2022-12-17T14:12:28;51.13;;;29.55;;
19863;SDS011;10094;48.820;9.226;2022-12-17T14:20:06;54.22;;;30.00;;
19863;SDS011;10094;48.820;9.226;2022-12-17T14:26:52;62.65;;;31.52;;
19863;SDS011;10094;48.820;9.226;2022-12-17T14:33:37;57.42;;;30.85;;
19863;SDS011;10094;48.820;9.226;2022-12-17T14:40:19;56.00;;;31.13;;
19863;SDS011;10094;48.820;9.226;2022-12-17T14:47:07;64.15;;;33.45;;
19863;SDS011;10094;48.820;9.226;2022-12-17T14:54:15;61.72;;;31.63;;
19863;SDS011;10094;48.820;9.226;2022-12-17T15:01:05;52.42;;;29.92;;
19863;SDS011;10094;48.820;9.226;2022-12-17T15:08:16;61.88;;;30.75;;
19863;SDS011;10094;48.820;9.226;2022-12-17T15:14:59;65.07;;;33.80;;
19863;SDS011;10094;48.820;9.226;2022-12-17T15:21:42;63.90;;;32.22;;
19863;SDS011;10094;48.820;9.226;2022-12-17T15:28:24;72.25;;;33.97;;
19863;SDS011;10094;48.820;9.226;2022-12-17T15:35:07;66.68;;;33.50;;
19863;SDS011;10094;48.820;9.226;2022-12-17T15:41:51;69.90;;;34.38;;
19863;SDS011;10094;48.820;9.226;2022-12-17T15:48:52;62.88;;;31.98;;
19863;SDS011;10094;48.820;9.226;2022-12-17T15:55:35;67.95;;;34.22;;
19863;SDS011;10094;48.820;9.226;2022-12-17T16:02:18;65.18;;;33.13;;
19863;SDS011;10094;48.820;9.226;2022-12-17T16:09:01;67.35;;;31.85;;
19863;SDS011;10094;48.820;9.226;2022-12-17T16:15:43;66.43;;;32.67;;
19863;SDS011;10094;48.820;9.226;2022-12-17T16:22:41;76.22;;;37.25;;
19863;SDS011;10094;48.820;9.226;2022-12-17T16:29:23;74.55;;;35.85;;
19863;SDS011;10094;48.820;9.226;2022-12-17T16:36:06;69.40;;;33.50;;
19863;SDS011;10094;48.820;9.226;2022-12-17T16:42:51;70.00;;;33.95;;
19863;SDS011;10094;48.820;9.226;2022-12-17T16:49:57;71.60;;;33.25;;
19863;SDS011;10094;48.820;9.226;2022-12-17T16:56:39;75.78;;;35.67;;
19863;SDS011;10094;48.820;9.226;2022-12-17T17:03:22;81.43;;;34.88;;
19863;SDS011;10094;48.820;9.226;2022-12-17T17:10:05;70.50;;;34.70;;
19863;SDS011;10094;48.820;9.226;2022-12-17T17:16:47;69.25;;;34.83;;
19863;SDS011;10094;48.820;9.226;2022-12-17T17:23:30;74.32;;;34.53;;
19863;SDS011;10094;48.820;9.226;2022-12-17T17:30:12;81.03;;;34.72;;
19863;SDS011;10094;48.820;9.226;2022-12-17T17:36:55;78.55;;;35.83;;
19863;SDS011;10094;48.820;9.226;2022-12-17T17:43:38;75.82;;;36.05;;
19863;SDS011;10094;48.820;9.226;2022-12-17T17:50:20;75.57;;;35.17;;
19863;SDS011;10094;48.820;9.226;2022-12-17T17:57:03;83.80;;;34.38;;
19863;SDS011;10094;48.820;9.226;2022-12-17T18:03:45;78.55;;;36.83;;
19863;SDS011;10094;48.820;9.226;2022-12-17T18:10:39;81.70;;;35.95;;
19863;SDS011;10094;48.820;9.226;2022-12-17T18:17:21;74.80;;;36.50;;
19863;SDS011;10094;48.820;9.226;2022-12-17T18:24:05;80.15;;;35.22;;
19863;SDS011;10094;48.820;9.226;2022-12-17T18:30:51;78.05;;;34.25;;
19863;SDS011;10094;48.820;9.226;2022-12-17T18:37:33;90.30;;;37.58;;
19863;SDS011;10094;48.820;9.226;2022-12-17T18:44:16;74.13;;;33.80;;
19863;SDS011;10094;48.820;9.226;2022-12-17T18:51:04;85.15;;;36.92;;
19863;SDS011;10094;48.820;9.226;2022-12-17T18:57:46;77.82;;;35.22;;
19863;SDS011;10094;48.820;9.226;2022-12-17T19:04:29;85.38;;;38.90;;
19863;SDS011;10094;48.820;9.226;2022-12-17T19:11:14;77.70;;;36.88;;
19863;SDS011;10094;48.820;9.226;2022-12-17T19:17:59;78.78;;;36.55;;
19863;SDS011;10094;48.820;9.226;2022-12-17T19:24:41;82.10;;;37.17;;
19863;SDS011;10094;48.820;9.226;2022-12-17T19:31:25;77.80;;;38.20;;
19863;SDS011;10094;48.820;9.226;2022-12-17T19:38:09;75.22;;;36.38;;
19863;SDS011;10094;48.820;9.226;2022-12-17T19:44:54;89.10;;;38.17;;
19863;SDS011;10094;48.820;9.226;2022-12-17T19:51:37;80.05;;;37.65;;
19863;SDS011;10094;48.820;9.226;2022-12-17T19:58:22;85.82;;;36.58;;
19863;SDS011;10094;48.820;9.226;2022-12-17T20:05:05;79.25;;;36.20;;
19863;SDS011;10094;48.820;9.226;2022-12-17T20:12:06;86.53;;;35.95;;
19863;SDS011;10094;48.820;9.226;2022-12-17T20:18:48;83.28;;;38.75;;
19863;SDS011;10094;48.820;9.226;2022-12-17T20:25:31;89.05;;;38.70;;
19863;SDS011;10094;48.820;9.226;2022-12-17T20:32:13;79.82;;;36.03;;
19863;SDS011;10094;48.820;9.226;2022-12-17T20:39:00;84.57;;;35.15;;
19863;SDS011;10094;48.820;9.226;2022-12-17T20:46:05;81.88;;;36.10;;
19863;SDS011;10094;48.820;9.226;2022-12-17T20:52:50;88.15;;;37.88;;
19863;SDS011;10094;48.820;9.226;2022-12-17T20:59:32;81.57;;;36.63;;
19863;SDS011;10094;48.820;9.226;2022-12-17T21:06:15;87.40;;;37.58;;
19863;SDS011;10094;48.820;9.226;2022-12-17T21:13:00;89.45;;;40.60;;
19863;SDS011;10094;48.820;9.226;2022-12-17T21:20:02;85.47;;;38.35;;
19863;SDS011;10094;48.820;9.226;2022-12-17T21:26:52;87.00;;;35.08;;
19863;SDS011;10094;48.820;9.226;2022-12-17T21:33:35;97.40;;;40.63;;
19863;SDS011;10094;48.820;9.226;2022-12-17T21:40:17;82.93;;;36.35;;
19863;SDS011;10094;48.820;9.226;2022-12-17T21:47:00;83.85;;;36.17;;
19863;SDS011;10094;48.820;9.226;2022-12-17T21:53:43;86.40;;;37.83;;
19863;SDS011;10094;48.820;9.226;2022-12-17T22:00:26;87.20;;;38.70;;
19863;SDS011;10094;48.820;9.226;2022-12-17T22:07:08;84.38;;;35.72;;
19863;SDS011;10094;48.820;9.226;2022-12-17T22:14:10;85.32;;;38.30;;
19863;SDS011;10094;48.820;9.226;2022-12-17T22:21:01;85.57;;;36.72;;
19863;SDS011;10094;48.820;9.226;2022-12-17T22:27:43;92.38;;;36.53;;
19863;SDS011;10094;48.820;9.226;2022-12-17T22:34:26;76.30;;;35.80;;
19863;SDS011;10094;48.820;9.226;2022-12-17T22:41:28;81.75;;;37.13;;
19863;SDS011;10094;48.820;9.226;2022-12-17T22:48:56;76.05;;;35.63;;
19863;SDS011;10094;48.820;9.226;2022-12-17T22:55:39;79.22;;;34.35;;
19863;SDS011;10094;48.820;9.226;2022-12-17T23:02:45;87.05;;;35.85;;
19863;SDS011;10094;48.820;9.226;2022-12-17T23:09:27;77.25;;;33.88;;
19863;SDS011;10094;48.820;9.226;2022-12-17T23:16:10;70.20;;;33.67;;
19863;SDS011;10094;48.820;9.226;2022-12-17T23:22:54;79.03;;;32.80;;
19863;SDS011;10094;48.820;9.226;2022-12-17T23:29:36;75.00;;;33.17;;
19863;SDS011;10094;48.820;9.226;2022-12-17T23:36:19;79.07;;;35.10;;
19863;SDS011;10094;48.820;9.226;2022-12-17T23:43:03;80.70;;;35.63;;
19863;SDS011;10094;48.820;9.226;2022-12-17T23:49:46;80.00;;;36.03;;
19863;SDS011;10094;48.820;9.226;2022-12-17T23:56:29;80.43;;;35.58;;
